createdAt,value
2022-07-31T00:00:25.685Z,96904.06
2022-07-31T00:02:53.604Z,96901.88
2022-07-31T00:05:21.455Z,96913.56
2022-07-31T00:07:49.443Z,96908.53
2022-07-31T00:10:18.686Z,96913.88
2022-07-31T00:12:46.683Z,96908.91
2022-07-31T00:15:14.575Z,96906.22
2022-07-31T00:17:44.970Z,96902.53
2022-07-31T00:20:14.429Z,96901.19
2022-07-31T00:22:43.167Z,96903.84
2022-07-31T00:25:11.537Z,96900.34
2022-07-31T00:27:41.193Z,96899.53
2022-07-31T00:30:10.252Z,96899.38
2022-07-31T00:32:38.287Z,96896.50
2022-07-31T00:35:07.011Z,96888.81
2022-07-31T00:37:37.550Z,96894.66
2022-07-31T00:40:10.427Z,96890.31
2022-07-31T00:42:38.366Z,96893.16
2022-07-31T00:45:09.006Z,96892.19
2022-07-31T00:47:37.363Z,96889.97
2022-07-31T00:50:08.663Z,96888.81
2022-07-31T00:52:36.583Z,96895.66
2022-07-31T00:55:04.695Z,96886.63
2022-07-31T00:57:32.727Z,96883.75
2022-07-31T01:00:00.652Z,96889.44
2022-07-31T01:02:29.955Z,96882.03
2022-07-31T01:04:58.143Z,96885.06
2022-07-31T01:07:26.235Z,96882.72
2022-07-31T01:09:55.317Z,96890.19
2022-07-31T01:12:30.742Z,96888.00
2022-07-31T01:15:04.101Z,96897.72
2022-07-31T01:17:34.030Z,96891.00
2022-07-31T01:20:02.879Z,96891.16
2022-07-31T01:23:17.339Z,96889.50
2022-07-31T01:26:19.398Z,96887.09
2022-07-31T01:29:09.931Z,96887.09
2022-07-31T01:31:43.159Z,96890.47
2022-07-31T01:34:20.829Z,96895.31
2022-07-31T01:36:59.004Z,96883.72
2022-07-31T01:39:33.805Z,96881.53
2022-07-31T01:42:05.282Z,96887.19
2022-07-31T01:44:43.339Z,96893.22
2022-07-31T01:47:14.027Z,96889.34
2022-07-31T01:49:45.062Z,96892.19
2022-07-31T01:52:16.176Z,96895.50
2022-07-31T01:54:46.279Z,96891.66
2022-07-31T01:57:17.337Z,96892.00
2022-07-31T01:59:54.878Z,96886.97
2022-07-31T02:02:43.536Z,96885.78
2022-07-31T02:05:13.042Z,96883.38
2022-07-31T02:07:43.173Z,96887.03
2022-07-31T02:10:13.246Z,96896.38
2022-07-31T02:12:41.838Z,96891.28
2022-07-31T02:15:13.343Z,96897.31
2022-07-31T02:17:47.579Z,96888.94
2022-07-31T02:20:26.009Z,96892.28
2022-07-31T02:22:57.176Z,96890.22
2022-07-31T02:25:25.760Z,96889.50
2022-07-31T02:27:58.677Z,96895.53
2022-07-31T02:30:38.910Z,96886.13
2022-07-31T02:33:11.203Z,96884.63
2022-07-31T02:35:44.290Z,96891.78
2022-07-31T02:38:22.275Z,96885.59
2022-07-31T02:40:54.509Z,96879.44
2022-07-31T02:43:22.762Z,96879.75
2022-07-31T02:45:52.945Z,96876.38
2022-07-31T02:48:21.316Z,96874.25
2022-07-31T02:50:50.965Z,96873.03
2022-07-31T02:53:19.756Z,96878.69
2022-07-31T02:55:50.906Z,96883.28
2022-07-31T02:58:18.928Z,96874.41
2022-07-31T03:00:46.955Z,96882.88
2022-07-31T03:03:17.768Z,96883.28
2022-07-31T03:05:45.916Z,96886.69
2022-07-31T03:08:14.313Z,96880.66
2022-07-31T03:10:45.155Z,96872.97
2022-07-31T03:13:15.348Z,96885.09
2022-07-31T03:15:50.912Z,96888.22
2022-07-31T03:18:21.783Z,96883.72
2022-07-31T03:20:51.806Z,96884.56
2022-07-31T03:23:22.473Z,96881.50
2022-07-31T03:25:59.204Z,96879.84
2022-07-31T03:28:27.237Z,96879.84
2022-07-31T03:30:56.801Z,96876.31
2022-07-31T03:33:29.113Z,96877.63
2022-07-31T03:35:57.986Z,96876.19
2022-07-31T03:38:41.844Z,96871.75
2022-07-31T03:41:32.843Z,96875.78
2022-07-31T03:44:01.285Z,96877.22
2022-07-31T03:46:30.000Z,96879.06
2022-07-31T03:48:59.636Z,96879.38
2022-07-31T03:51:29.103Z,96885.53
2022-07-31T03:53:57.406Z,96885.66
2022-07-31T03:56:47.638Z,96886.16
2022-07-31T03:59:18.258Z,96880.28
2022-07-31T04:01:58.211Z,96882.09
2022-07-31T04:04:46.163Z,96883.53
2022-07-31T04:07:14.785Z,96889.72
2022-07-31T04:09:42.733Z,96883.69
2022-07-31T04:12:12.411Z,96883.00
2022-07-31T04:14:40.453Z,96890.28
2022-07-31T04:17:08.755Z,96891.53
2022-07-31T04:19:37.059Z,96888.75
2022-07-31T04:22:07.367Z,96890.16
2022-07-31T04:24:35.498Z,96890.28
2022-07-31T04:27:21.863Z,96885.81
2022-07-31T04:29:50.344Z,96885.66
2022-07-31T04:32:18.265Z,96882.38
2022-07-31T04:34:53.466Z,96888.41
2022-07-31T04:37:22.985Z,96888.13
2022-07-31T04:39:50.968Z,96895.25
2022-07-31T04:42:19.113Z,96895.25
2022-07-31T04:44:47.196Z,96898.09
2022-07-31T04:47:15.091Z,96901.84
2022-07-31T04:49:45.892Z,96900.69
2022-07-31T04:52:16.937Z,96894.22
2022-07-31T04:54:48.562Z,96902.59
2022-07-31T04:57:21.568Z,96896.81
2022-07-31T04:59:59.705Z,96905.75
2022-07-31T05:02:32.069Z,96899.97
2022-07-31T05:05:00.159Z,96901.19
2022-07-31T05:07:40.288Z,96901.88
2022-07-31T05:10:34.726Z,96907.56
2022-07-31T05:13:03.336Z,96904.00
2022-07-31T05:15:33.101Z,96896.38
2022-07-31T05:18:01.040Z,96896.59
2022-07-31T05:20:37.904Z,96895.16
2022-07-31T05:23:41.703Z,96889.63
2022-07-31T05:26:20.229Z,96897.38
2022-07-31T05:28:49.581Z,96902.75
2022-07-31T05:31:18.938Z,96898.59
2022-07-31T05:33:48.415Z,96903.38
2022-07-31T05:36:17.981Z,96894.53
2022-07-31T05:38:46.048Z,96894.22
2022-07-31T05:41:51.344Z,96898.16
2022-07-31T05:44:41.750Z,96896.50
2022-07-31T05:47:09.696Z,96897.88
2022-07-31T05:49:39.399Z,96899.91
2022-07-31T05:52:07.441Z,96896.75
2022-07-31T05:54:35.475Z,96896.28
2022-07-31T05:57:32.923Z,96892.84
2022-07-31T06:00:04.206Z,96896.69
2022-07-31T06:02:40.279Z,96891.72
2022-07-31T06:05:21.199Z,96895.25
2022-07-31T06:07:52.076Z,96900.13
2022-07-31T06:10:21.202Z,96904.81
2022-07-31T06:12:50.587Z,96907.00
2022-07-31T06:15:19.146Z,96909.19
2022-07-31T06:17:47.291Z,96914.59
2022-07-31T06:20:23.356Z,96912.16
2022-07-31T06:22:51.287Z,96904.63
2022-07-31T06:25:19.618Z,96908.16
2022-07-31T06:27:55.022Z,96913.19
2022-07-31T06:30:29.174Z,96910.03
2022-07-31T06:32:57.096Z,96913.38
2022-07-31T06:35:25.866Z,96914.72
2022-07-31T06:38:20.009Z,96916.72
2022-07-31T06:41:06.371Z,96915.94
2022-07-31T06:43:51.531Z,96925.31
2022-07-31T06:46:52.778Z,96924.63
2022-07-31T06:49:56.327Z,96926.50
2022-07-31T06:52:28.220Z,96926.34
2022-07-31T06:54:56.789Z,96909.78
2022-07-31T06:57:24.776Z,96914.28
2022-07-31T06:59:52.674Z,96913.47
2022-07-31T07:02:22.085Z,96913.81
2022-07-31T07:05:04.580Z,96906.59
2022-07-31T07:07:36.502Z,96909.28
2022-07-31T07:10:06.761Z,96906.91
2022-07-31T07:12:54.151Z,96906.72
2022-07-31T07:15:22.799Z,96900.69
2022-07-31T07:17:52.070Z,96901.69
2022-07-31T07:20:33.836Z,96900.50
2022-07-31T07:23:02.142Z,96901.47
2022-07-31T07:25:40.836Z,96901.28
2022-07-31T07:28:29.243Z,96896.72
2022-07-31T07:31:00.041Z,96905.06
2022-07-31T07:33:41.378Z,96897.34
2022-07-31T07:36:22.251Z,96894.91
2022-07-31T07:38:56.556Z,96898.03
2022-07-31T07:41:25.155Z,96898.00
2022-07-31T07:43:53.458Z,96893.41
2022-07-31T07:46:24.160Z,96894.84
2022-07-31T07:48:58.389Z,96892.75
2022-07-31T07:51:37.366Z,96896.06
2022-07-31T07:54:27.268Z,96894.38
2022-07-31T07:57:16.037Z,96886.50
2022-07-31T08:00:03.814Z,96898.53
2022-07-31T08:03:47.395Z,96894.91
2022-07-31T08:05:42.724Z,96895.38
2022-07-31T08:08:11.231Z,96891.50
2022-07-31T08:10:41.040Z,96886.97
2022-07-31T08:13:22.863Z,96884.44
2022-07-31T08:16:09.318Z,96891.97
2022-07-31T08:18:43.423Z,96883.53
2022-07-31T08:21:12.755Z,96886.03
2022-07-31T08:23:40.662Z,96892.44
2022-07-31T08:26:09.507Z,96895.97
2022-07-31T08:28:37.455Z,96896.91
2022-07-31T08:31:05.380Z,96893.66
2022-07-31T08:33:39.694Z,96893.38
2022-07-31T08:36:09.047Z,96892.28
2022-07-31T08:38:39.510Z,96885.44
2022-07-31T08:41:27.832Z,96878.03
2022-07-31T08:44:01.410Z,96876.34
2022-07-31T08:46:34.192Z,96879.13
2022-07-31T08:49:04.434Z,96887.00
2022-07-31T08:51:51.449Z,96880.88
2022-07-31T08:54:23.861Z,96876.81
2022-07-31T08:56:53.035Z,96875.13
2022-07-31T08:59:23.099Z,96877.13
2022-07-31T09:01:53.067Z,96876.63
2022-07-31T09:04:21.141Z,96864.38
2022-07-31T09:06:49.359Z,96866.44
2022-07-31T09:09:17.953Z,96863.34
2022-07-31T09:11:53.813Z,96860.28
2022-07-31T09:14:49.428Z,96863.56
2022-07-31T09:17:17.384Z,96864.22
2022-07-31T09:19:51.674Z,96855.31
2022-07-31T09:22:25.810Z,96854.69
2022-07-31T09:25:06.680Z,96844.22
2022-07-31T09:27:36.075Z,96851.06
2022-07-31T09:30:05.591Z,96845.91
2022-07-31T09:32:54.017Z,96853.81
2022-07-31T09:35:39.813Z,96848.34
2022-07-31T09:38:10.154Z,96847.38
2022-07-31T09:41:53.453Z,96850.13
2022-07-31T09:44:12.586Z,96848.09
2022-07-31T09:46:42.540Z,96842.19
2022-07-31T09:49:11.108Z,96828.94
2022-07-31T09:51:42.004Z,96827.69
2022-07-31T09:54:22.021Z,96836.63
2022-07-31T09:57:15.783Z,96833.72
2022-07-31T09:59:53.878Z,96835.84
2022-07-31T10:02:23.191Z,96830.00
2022-07-31T10:04:54.339Z,96823.75
2022-07-31T10:07:32.289Z,96824.59
2022-07-31T10:10:25.244Z,96823.78
2022-07-31T10:12:57.482Z,96817.13
2022-07-31T10:15:27.503Z,96819.47
2022-07-31T10:18:18.329Z,96818.44
2022-07-31T10:21:41.451Z,96813.81
2022-07-31T10:24:13.232Z,96820.31
2022-07-31T10:27:00.829Z,96816.34
2022-07-31T10:29:32.358Z,96813.84
2022-07-31T10:32:03.794Z,96803.84
2022-07-31T10:34:35.018Z,96807.00
2022-07-31T10:37:25.935Z,96803.84
2022-07-31T10:40:24.462Z,96809.69
2022-07-31T10:43:11.920Z,96803.03
2022-07-31T10:45:47.151Z,96798.69
2022-07-31T10:48:53.686Z,96804.91
2022-07-31T10:51:53.740Z,96795.97
2022-07-31T10:54:41.540Z,96799.50
2022-07-31T10:57:30.984Z,96800.13
2022-07-31T11:00:30.069Z,96796.81
2022-07-31T11:03:21.454Z,96793.47
2022-07-31T11:06:09.167Z,96792.41
2022-07-31T11:08:56.031Z,96797.19
2022-07-31T11:11:51.976Z,96791.16
2022-07-31T11:14:40.348Z,96784.28
2022-07-31T11:18:16.866Z,96775.91
2022-07-31T11:20:28.258Z,96774.06
2022-07-31T11:23:04.300Z,96780.09
2022-07-31T11:25:34.665Z,96767.44
2022-07-31T11:28:12.300Z,96767.19
2022-07-31T11:30:54.477Z,96766.75
2022-07-31T11:33:41.012Z,96771.78
2022-07-31T11:36:12.630Z,96768.63
2022-07-31T11:38:43.986Z,96774.69
2022-07-31T11:41:15.557Z,96774.47
2022-07-31T11:43:48.288Z,96766.34
2022-07-31T11:46:26.072Z,96767.59
2022-07-31T11:48:54.771Z,96763.63
2022-07-31T11:51:23.809Z,96760.91
2022-07-31T11:53:57.343Z,96759.19
2022-07-31T11:56:27.793Z,96744.13
2022-07-31T11:58:57.362Z,96744.13
2022-07-31T12:01:27.240Z,96746.78
2022-07-31T12:03:55.558Z,96743.84
2022-07-31T12:06:23.812Z,96742.38
2022-07-31T12:08:54.712Z,96729.84
2022-07-31T12:11:23.076Z,96725.63
2022-07-31T12:13:51.496Z,96722.28
2022-07-31T12:16:19.840Z,96726.91
2022-07-31T12:18:49.780Z,96724.81
2022-07-31T12:21:19.103Z,96730.97
2022-07-31T12:23:49.132Z,96732.50
2022-07-31T12:26:26.172Z,96721.94
2022-07-31T12:29:02.446Z,96709.88
2022-07-31T12:31:32.841Z,96713.00
2022-07-31T12:34:00.805Z,96716.28
2022-07-31T12:36:28.743Z,96717.28
2022-07-31T12:39:01.046Z,96727.06
2022-07-31T12:41:31.088Z,96725.69
2022-07-31T12:44:10.434Z,96724.03
2022-07-31T12:46:41.506Z,96711.13
2022-07-31T12:49:09.791Z,96716.69
2022-07-31T12:51:44.836Z,96706.09
2022-07-31T12:54:16.152Z,96702.28
2022-07-31T12:56:46.529Z,96698.59
2022-07-31T12:59:14.648Z,96692.53
2022-07-31T13:01:43.131Z,96695.47
2022-07-31T13:04:19.050Z,96681.53
2022-07-31T13:06:51.388Z,96689.00
2022-07-31T13:09:20.468Z,96681.75
2022-07-31T13:11:53.386Z,96677.81
2022-07-31T13:14:25.317Z,96681.81
2022-07-31T13:16:55.015Z,96676.19
2022-07-31T13:19:23.151Z,96669.25
2022-07-31T13:21:51.080Z,96665.03
2022-07-31T13:24:20.125Z,96654.06
2022-07-31T13:26:50.195Z,96660.72
2022-07-31T13:29:18.556Z,96652.56
2022-07-31T13:31:46.677Z,96649.22
2022-07-31T13:34:14.603Z,96642.59
2022-07-31T13:36:43.655Z,96632.28
2022-07-31T13:39:11.914Z,96635.59
2022-07-31T13:41:40.016Z,96629.63
2022-07-31T13:44:10.279Z,96629.63
2022-07-31T13:46:38.467Z,96623.53
2022-07-31T13:49:09.585Z,96629.84
2022-07-31T13:51:38.148Z,96633.38
2022-07-31T13:54:06.552Z,96640.84
2022-07-31T13:56:42.492Z,96634.97
2022-07-31T13:59:14.018Z,96633.31
2022-07-31T14:02:03.913Z,96636.16
2022-07-31T14:04:32.333Z,96633.84
2022-07-31T14:07:03.431Z,96621.84
2022-07-31T14:09:34.650Z,96614.47
2022-07-31T14:12:04.304Z,96614.28
2022-07-31T14:14:34.108Z,96608.25
2022-07-31T14:17:01.985Z,96607.06
2022-07-31T14:19:29.865Z,96607.09
2022-07-31T14:21:57.997Z,96602.78
2022-07-31T14:24:26.678Z,96612.66
2022-07-31T14:26:54.583Z,96605.44
2022-07-31T14:29:22.480Z,96609.44
2022-07-31T14:31:51.825Z,96599.16
2022-07-31T14:34:19.766Z,96599.06
2022-07-31T14:36:47.729Z,96607.59
2022-07-31T14:39:15.698Z,96600.50
2022-07-31T14:41:43.774Z,96593.44
2022-07-31T14:44:11.787Z,96590.94
2022-07-31T14:46:39.723Z,96589.53
2022-07-31T14:49:09.176Z,96596.50
2022-07-31T14:51:37.097Z,96584.47
2022-07-31T14:54:05.449Z,96590.97
2022-07-31T14:57:00.134Z,96586.69
2022-07-31T14:59:21.214Z,96583.78
2022-07-31T15:01:49.113Z,96579.50
2022-07-31T15:04:18.591Z,96585.41
2022-07-31T15:06:56.117Z,96587.38
2022-07-31T15:09:31.499Z,96586.19
2022-07-31T15:12:01.888Z,96581.97
2022-07-31T15:14:30.263Z,96581.84
2022-07-31T15:16:58.185Z,96581.97
2022-07-31T15:19:27.476Z,96574.63
2022-07-31T15:22:15.841Z,96580.44
2022-07-31T15:24:48.413Z,96570.53
2022-07-31T15:27:17.976Z,96571.50
2022-07-31T15:30:06.107Z,96571.34
2022-07-31T15:32:34.425Z,96571.09
2022-07-31T15:35:06.128Z,96569.91
2022-07-31T15:37:35.487Z,96560.97
2022-07-31T15:40:05.617Z,96567.72
2022-07-31T15:42:33.913Z,96570.09
2022-07-31T15:45:01.980Z,96574.84
2022-07-31T15:47:29.876Z,96560.56
2022-07-31T15:49:57.779Z,96561.25
2022-07-31T15:52:27.198Z,96557.97
2022-07-31T15:54:55.155Z,96563.97
2022-07-31T15:57:23.996Z,96558.66
2022-07-31T15:59:54.326Z,96555.78
2022-07-31T16:02:23.209Z,96556.25
2022-07-31T16:04:54.153Z,96546.47
2022-07-31T16:08:30.839Z,96542.00
2022-07-31T16:10:18.203Z,96543.22
2022-07-31T16:12:46.672Z,96538.97
2022-07-31T16:15:14.991Z,96546.75
2022-07-31T16:17:44.892Z,96539.19
2022-07-31T16:20:25.400Z,96533.38
2022-07-31T16:22:56.189Z,96525.38
2022-07-31T16:25:26.278Z,96529.63
2022-07-31T16:27:54.186Z,96532.94
2022-07-31T16:30:22.597Z,96538.47
2022-07-31T16:32:51.479Z,96526.16
2022-07-31T16:35:19.815Z,96529.31
2022-07-31T16:37:51.327Z,96530.88
2022-07-31T16:40:28.175Z,96533.22
2022-07-31T16:43:48.236Z,96532.63
2022-07-31T16:45:50.528Z,96527.44
2022-07-31T16:48:18.923Z,96533.47
2022-07-31T16:50:53.010Z,96531.69
2022-07-31T16:54:11.077Z,96529.75
2022-07-31T16:56:09.791Z,96530.69
2022-07-31T16:58:39.339Z,96529.94
2022-07-31T17:01:53.997Z,96531.50
2022-07-31T17:04:01.401Z,96537.84
2022-07-31T17:06:36.481Z,96534.97
2022-07-31T17:09:17.047Z,96539.44
2022-07-31T17:11:47.487Z,96522.31
2022-07-31T17:14:17.267Z,96527.75
2022-07-31T17:16:48.010Z,96526.44
2022-07-31T17:19:42.762Z,96529.63
2022-07-31T17:22:07.213Z,96531.53
2022-07-31T17:24:37.823Z,96529.84
2022-07-31T17:27:07.239Z,96530.31
2022-07-31T17:29:37.730Z,96534.53
2022-07-31T17:32:06.440Z,96537.72
2022-07-31T17:34:35.406Z,96532.09
2022-07-31T17:37:03.774Z,96539.72
2022-07-31T17:39:32.144Z,96541.47
2022-07-31T17:42:00.076Z,96542.59
2022-07-31T17:44:28.078Z,96536.56
2022-07-31T17:46:58.051Z,96531.59
2022-07-31T17:49:27.379Z,96536.66
2022-07-31T17:51:58.825Z,96544.81
2022-07-31T17:54:28.267Z,96543.13
2022-07-31T17:56:56.292Z,96540.88
2022-07-31T17:59:24.251Z,96536.75
2022-07-31T18:01:59.400Z,96548.28
2022-07-31T18:04:29.661Z,96541.38
2022-07-31T18:06:57.771Z,96542.06
2022-07-31T18:09:26.442Z,96545.66
2022-07-31T18:11:56.019Z,96552.59
2022-07-31T18:14:24.515Z,96541.38
2022-07-31T18:16:53.084Z,96557.50
2022-07-31T18:19:22.002Z,96550.03
2022-07-31T18:21:51.466Z,96557.19
2022-07-31T18:24:19.467Z,96557.84
2022-07-31T18:26:47.831Z,96551.25
2022-07-31T18:29:16.950Z,96552.53
2022-07-31T18:31:45.534Z,96554.63
2022-07-31T18:34:13.714Z,96562.13
2022-07-31T18:36:41.902Z,96556.56
2022-07-31T18:39:11.287Z,96555.34
2022-07-31T18:41:39.350Z,96556.00
2022-07-31T18:44:07.336Z,96552.28
2022-07-31T18:46:35.307Z,96557.53
2022-07-31T18:49:04.327Z,96564.44
2022-07-31T18:51:32.353Z,96567.00
2022-07-31T18:54:01.274Z,96563.50
2022-07-31T18:56:30.773Z,96560.63
2022-07-31T18:58:58.879Z,96563.97
2022-07-31T19:01:26.839Z,96563.81
2022-07-31T19:03:55.180Z,96575.53
2022-07-31T19:06:23.632Z,96569.31
2022-07-31T19:08:52.102Z,96569.38
2022-07-31T19:11:20.470Z,96570.69
2022-07-31T19:13:50.256Z,96575.94
2022-07-31T19:16:18.312Z,96581.81
2022-07-31T19:18:50.301Z,96589.13
2022-07-31T19:21:41.694Z,96583.94
2022-07-31T19:24:08.413Z,96587.91
2022-07-31T19:26:36.389Z,96594.56
2022-07-31T19:29:05.819Z,96594.19
2022-07-31T19:31:33.864Z,96597.72
2022-07-31T19:34:01.867Z,96602.53
2022-07-31T19:36:29.957Z,96598.56
2022-07-31T19:38:57.940Z,96596.31
2022-07-31T19:41:25.897Z,96599.66
2022-07-31T19:43:53.807Z,96600.91
2022-07-31T19:46:23.012Z,96607.78
2022-07-31T19:48:50.977Z,96609.84
2022-07-31T19:51:18.975Z,96607.78
2022-07-31T19:53:47.112Z,96619.81
2022-07-31T19:56:20.389Z,96612.16
2022-07-31T19:58:49.366Z,96612.56
2022-07-31T20:01:20.065Z,96615.06
2022-07-31T20:03:50.138Z,96616.50
2022-07-31T20:06:18.132Z,96615.91
2022-07-31T20:08:46.324Z,96617.56
2022-07-31T20:11:14.252Z,96625.47
2022-07-31T20:13:42.208Z,96626.75
2022-07-31T20:16:10.169Z,96630.88
2022-07-31T20:18:38.380Z,96629.63
2022-07-31T20:21:10.083Z,96632.97
2022-07-31T20:23:41.440Z,96633.00
2022-07-31T20:26:11.152Z,96636.09
2022-07-31T20:28:40.294Z,96628.22
2022-07-31T20:31:15.793Z,96638.16
2022-07-31T20:33:48.898Z,96637.13
2022-07-31T20:36:27.341Z,96640.44
2022-07-31T20:38:56.579Z,96631.53
2022-07-31T20:41:24.488Z,96640.41
2022-07-31T20:43:52.437Z,96634.19
2022-07-31T20:46:20.395Z,96633.75
2022-07-31T20:48:50.004Z,96634.16
2022-07-31T20:51:20.516Z,96635.84
2022-07-31T20:53:50.277Z,96642.06
2022-07-31T20:56:18.688Z,96637.69
2022-07-31T20:58:51.411Z,96637.88
2022-07-31T21:01:20.174Z,96632.69
2022-07-31T21:03:48.420Z,96642.88
2022-07-31T21:06:17.715Z,96643.69
2022-07-31T21:08:45.619Z,96653.44
2022-07-31T21:11:15.224Z,96646.19
2022-07-31T21:13:43.255Z,96651.13
2022-07-31T21:16:11.212Z,96647.16
2022-07-31T21:18:43.211Z,96650.72
2022-07-31T21:21:11.513Z,96643.84
2022-07-31T21:23:39.428Z,96649.63
2022-07-31T21:26:08.630Z,96650.00
2022-07-31T21:28:39.547Z,96653.72
2022-07-31T21:31:07.897Z,96648.25
2022-07-31T21:33:36.314Z,96658.81
2022-07-31T21:36:05.929Z,96652.16
2022-07-31T21:38:36.378Z,96660.41
2022-07-31T21:41:04.832Z,96658.25
2022-07-31T21:43:33.511Z,96663.59
2022-07-31T21:46:23.338Z,96662.31
2022-07-31T21:48:52.614Z,96657.28
2022-07-31T21:51:20.882Z,96666.56
2022-07-31T21:56:17.249Z,96666.84
2022-07-31T21:58:45.435Z,96670.94
2022-07-31T22:01:15.127Z,96678.91
2022-07-31T22:03:44.642Z,96672.63
2022-07-31T22:06:29.687Z,96681.50
2022-07-31T22:08:57.610Z,96687.06
2022-07-31T22:11:25.566Z,96681.59
2022-07-31T22:13:53.513Z,96687.75
2022-07-31T22:16:21.419Z,96684.03
2022-07-31T22:18:53.368Z,96692.13
2022-07-31T22:21:21.717Z,96688.53
2022-07-31T22:23:50.098Z,96690.50
2022-07-31T22:26:18.257Z,96696.03
2022-07-31T22:28:47.887Z,96691.53
2022-07-31T22:31:16.223Z,96694.78
2022-07-31T22:33:44.313Z,96694.34
2022-07-31T22:36:13.736Z,96697.44
2022-07-31T22:38:44.648Z,96687.41
2022-07-31T22:41:13.304Z,96692.53
2022-07-31T22:44:10.132Z,96693.28
2022-07-31T22:46:32.516Z,96690.50
2022-07-31T22:49:02.276Z,96696.66
2022-07-31T22:51:35.471Z,96694.50
2022-07-31T22:54:06.139Z,96694.25
2022-07-31T22:56:34.103Z,96691.91
2022-07-31T22:59:01.962Z,96696.84
2022-07-31T23:01:29.929Z,96707.38
2022-07-31T23:03:57.777Z,96696.56
2022-07-31T23:06:30.893Z,96700.25
2022-07-31T23:09:02.267Z,96705.53
2022-07-31T23:11:30.832Z,96707.22
2022-07-31T23:13:59.090Z,96701.38
2022-07-31T23:16:27.549Z,96713.31
2022-07-31T23:18:55.771Z,96706.97
2022-07-31T23:21:24.130Z,96713.56
2022-07-31T23:23:52.618Z,96710.31
2022-07-31T23:26:25.065Z,96711.88
2022-07-31T23:28:54.787Z,96717.63
2022-07-31T23:31:23.480Z,96711.97
2022-07-31T23:33:52.157Z,96712.03
2022-07-31T23:36:20.540Z,96710.53
2022-07-31T23:38:48.809Z,96711.75
2022-07-31T23:41:36.861Z,96711.28
2022-07-31T23:44:05.705Z,96715.50
2022-07-31T23:46:41.461Z,96708.66
2022-07-31T23:49:10.120Z,96715.72
2022-07-31T23:51:38.140Z,96708.81
2022-07-31T23:54:06.347Z,96710.88
2022-07-31T23:56:34.356Z,96706.06
2022-07-31T23:59:02.269Z,96707.97
